sensor_id;sensor_type;location;lat;lon;timestamp;temperature;humidity
20459;DHT22;10388;52.314;7.938;2024-03-17T00:00:27;2.10;99.90
20459;DHT22;10388;52.314;7.938;2024-03-17T00:02:58;2.10;99.90
20459;DHT22;10388;52.314;7.938;2024-03-17T00:05:28;2.10;99.90
20459;DHT22;10388;52.314;7.938;2024-03-17T00:07:59;2.10;99.90
20459;DHT22;10388;52.314;7.938;2024-03-17T00:10:29;2.10;99.90
20459;DHT22;10388;52.314;7.938;2024-03-17T00:13:00;2.10;99.90
20459;DHT22;10388;52.314;7.938;2024-03-17T00:15:31;2.10;99.90
20459;DHT22;10388;52.314;7.938;2024-03-17T00:18:02;2.00;99.90
20459;DHT22;10388;52.314;7.938;2024-03-17T00:20:33;2.00;99.90
20459;DHT22;10388;52.314;7.938;2024-03-17T00:23:04;2.00;99.90
20459;DHT22;10388;52.314;7.938;2024-03-17T00:25:36;2.00;99.90
20459;DHT22;10388;52.314;7.938;2024-03-17T00:28:07;2.00;99.90
20459;DHT22;10388;52.314;7.938;2024-03-17T00:30:37;2.00;99.90
20459;DHT22;10388;52.314;7.938;2024-03-17T00:33:08;2.00;99.90
20459;DHT22;10388;52.314;7.938;2024-03-17T00:35:38;2.00;99.90
20459;DHT22;10388;52.314;7.938;2024-03-17T00:38:09;2.00;99.90
20459;DHT22;10388;52.314;7.938;2024-03-17T00:40:43;1.90;99.90
20459;DHT22;10388;52.314;7.938;2024-03-17T00:43:15;1.90;99.90
20459;DHT22;10388;52.314;7.938;2024-03-17T00:45:52;1.90;99.90
20459;DHT22;10388;52.314;7.938;2024-03-17T00:48:23;1.90;99.90
20459;DHT22;10388;52.314;7.938;2024-03-17T00:50:57;1.90;99.90
20459;DHT22;10388;52.314;7.938;2024-03-17T00:53:28;1.90;99.90
20459;DHT22;10388;52.314;7.938;2024-03-17T00:55:59;1.80;99.90
20459;DHT22;10388;52.314;7.938;2024-03-17T00:58:33;1.80;99.90
20459;DHT22;10388;52.314;7.938;2024-03-17T01:01:03;1.80;99.90
20459;DHT22;10388;52.314;7.938;2024-03-17T01:03:34;1.80;99.90
20459;DHT22;10388;52.314;7.938;2024-03-17T01:06:05;1.70;99.90
20459;DHT22;10388;52.314;7.938;2024-03-17T01:08:36;1.70;99.90
20459;DHT22;10388;52.314;7.938;2024-03-17T01:11:06;1.70;99.90
20459;DHT22;10388;52.314;7.938;2024-03-17T01:13:39;1.70;99.90
20459;DHT22;10388;52.314;7.938;2024-03-17T01:16:15;1.70;99.90
20459;DHT22;10388;52.314;7.938;2024-03-17T01:18:46;1.60;99.90
20459;DHT22;10388;52.314;7.938;2024-03-17T01:21:16;1.60;99.90
20459;DHT22;10388;52.314;7.938;2024-03-17T01:23:50;1.60;99.90
20459;DHT22;10388;52.314;7.938;2024-03-17T01:26:21;1.60;99.90
20459;DHT22;10388;52.314;7.938;2024-03-17T01:28:52;1.50;99.90
20459;DHT22;10388;52.314;7.938;2024-03-17T01:31:51;1.50;99.90
20459;DHT22;10388;52.314;7.938;2024-03-17T01:37:45;1.50;99.90
20459;DHT22;10388;52.314;7.938;2024-03-17T01:40:16;1.50;99.90
20459;DHT22;10388;52.314;7.938;2024-03-17T01:43:31;1.40;99.90
20459;DHT22;10388;52.314;7.938;2024-03-17T01:46:13;1.40;99.90
20459;DHT22;10388;52.314;7.938;2024-03-17T01:48:51;1.40;99.90
20459;DHT22;10388;52.314;7.938;2024-03-17T01:51:36;1.30;99.90
20459;DHT22;10388;52.314;7.938;2024-03-17T01:54:27;1.30;99.90
20459;DHT22;10388;52.314;7.938;2024-03-17T02:00:09;1.30;99.90
20459;DHT22;10388;52.314;7.938;2024-03-17T02:03:06;1.30;99.90
20459;DHT22;10388;52.314;7.938;2024-03-17T02:06:25;1.20;99.90
20459;DHT22;10388;52.314;7.938;2024-03-17T02:09:12;1.20;99.90
20459;DHT22;10388;52.314;7.938;2024-03-17T02:11:57;1.20;99.90
20459;DHT22;10388;52.314;7.938;2024-03-17T02:14:42;1.20;99.90
20459;DHT22;10388;52.314;7.938;2024-03-17T02:17:37;1.10;99.90
20459;DHT22;10388;52.314;7.938;2024-03-17T02:20:49;1.10;99.90
20459;DHT22;10388;52.314;7.938;2024-03-17T02:24:10;1.10;99.90
20459;DHT22;10388;52.314;7.938;2024-03-17T02:26:50;1.10;99.90
20459;DHT22;10388;52.314;7.938;2024-03-17T02:29:44;1.10;99.90
20459;DHT22;10388;52.314;7.938;2024-03-17T02:35:33;1.10;99.90
20459;DHT22;10388;52.314;7.938;2024-03-17T02:38:50;1.00;99.90
20459;DHT22;10388;52.314;7.938;2024-03-17T02:42:08;1.00;99.90
20459;DHT22;10388;52.314;7.938;2024-03-17T02:45:12;1.00;99.90
20459;DHT22;10388;52.314;7.938;2024-03-17T02:48:10;1.00;99.90
20459;DHT22;10388;52.314;7.938;2024-03-17T02:51:00;0.90;99.90
20459;DHT22;10388;52.314;7.938;2024-03-17T02:53:38;1.00;99.90
20459;DHT22;10388;52.314;7.938;2024-03-17T02:59:36;0.90;99.90
20459;DHT22;10388;52.314;7.938;2024-03-17T03:02:15;0.90;99.90
20459;DHT22;10388;52.314;7.938;2024-03-17T03:05:06;0.90;99.90
20459;DHT22;10388;52.314;7.938;2024-03-17T03:07:49;0.90;99.90
20459;DHT22;10388;52.314;7.938;2024-03-17T03:16:46;0.80;99.90
20459;DHT22;10388;52.314;7.938;2024-03-17T03:23:10;0.80;99.90
20459;DHT22;10388;52.314;7.938;2024-03-17T03:26:29;0.80;99.90
20459;DHT22;10388;52.314;7.938;2024-03-17T03:32:42;0.70;99.90
20459;DHT22;10388;52.314;7.938;2024-03-17T03:38:30;0.70;99.90
20459;DHT22;10388;52.314;7.938;2024-03-17T03:44:21;0.70;99.90
20459;DHT22;10388;52.314;7.938;2024-03-17T03:56:13;0.60;99.90
20459;DHT22;10388;52.314;7.938;2024-03-17T03:58:53;0.60;99.90
20459;DHT22;10388;52.314;7.938;2024-03-17T04:01:41;0.60;99.90
20459;DHT22;10388;52.314;7.938;2024-03-17T04:05:14;0.50;99.90
20459;DHT22;10388;52.314;7.938;2024-03-17T04:08:06;0.50;99.90
20459;DHT22;10388;52.314;7.938;2024-03-17T04:10:53;0.50;99.90
20459;DHT22;10388;52.314;7.938;2024-03-17T04:13:49;0.50;99.90
20459;DHT22;10388;52.314;7.938;2024-03-17T04:16:29;0.50;99.90
20459;DHT22;10388;52.314;7.938;2024-03-17T04:19:01;0.50;99.90
20459;DHT22;10388;52.314;7.938;2024-03-17T04:21:32;0.40;99.90
20459;DHT22;10388;52.314;7.938;2024-03-17T04:24:03;0.50;99.90
20459;DHT22;10388;52.314;7.938;2024-03-17T04:26:33;0.40;99.90
20459;DHT22;10388;52.314;7.938;2024-03-17T04:29:04;0.40;99.90
20459;DHT22;10388;52.314;7.938;2024-03-17T04:31:35;0.50;99.90
20459;DHT22;10388;52.314;7.938;2024-03-17T04:34:06;0.40;99.90
20459;DHT22;10388;52.314;7.938;2024-03-17T04:36:37;0.40;99.90
20459;DHT22;10388;52.314;7.938;2024-03-17T04:39:07;0.40;99.90
20459;DHT22;10388;52.314;7.938;2024-03-17T04:41:38;0.40;99.90
20459;DHT22;10388;52.314;7.938;2024-03-17T04:44:11;0.40;99.90
20459;DHT22;10388;52.314;7.938;2024-03-17T04:46:41;0.40;99.90
20459;DHT22;10388;52.314;7.938;2024-03-17T04:49:12;0.40;99.90
20459;DHT22;10388;52.314;7.938;2024-03-17T04:51:43;0.40;99.90
20459;DHT22;10388;52.314;7.938;2024-03-17T04:54:13;0.40;99.90
20459;DHT22;10388;52.314;7.938;2024-03-17T04:56:44;0.50;99.90
20459;DHT22;10388;52.314;7.938;2024-03-17T04:59:14;0.40;99.90
20459;DHT22;10388;52.314;7.938;2024-03-17T05:01:45;0.50;99.90
20459;DHT22;10388;52.314;7.938;2024-03-17T05:04:16;0.50;99.90
20459;DHT22;10388;52.314;7.938;2024-03-17T05:06:48;0.50;99.90
20459;DHT22;10388;52.314;7.938;2024-03-17T05:09:20;0.50;99.90
20459;DHT22;10388;52.314;7.938;2024-03-17T05:11:51;0.50;99.90
20459;DHT22;10388;52.314;7.938;2024-03-17T05:14:24;0.50;99.90
20459;DHT22;10388;52.314;7.938;2024-03-17T05:16:56;0.60;99.90
20459;DHT22;10388;52.314;7.938;2024-03-17T05:19:27;0.60;99.90
20459;DHT22;10388;52.314;7.938;2024-03-17T05:21:57;0.50;99.90
20459;DHT22;10388;52.314;7.938;2024-03-17T05:24:28;0.60;99.90
20459;DHT22;10388;52.314;7.938;2024-03-17T05:26:59;0.60;99.90
20459;DHT22;10388;52.314;7.938;2024-03-17T05:29:29;0.60;99.90
20459;DHT22;10388;52.314;7.938;2024-03-17T05:32:00;0.70;99.90
20459;DHT22;10388;52.314;7.938;2024-03-17T05:34:33;0.70;99.90
20459;DHT22;10388;52.314;7.938;2024-03-17T05:37:04;0.70;99.90
20459;DHT22;10388;52.314;7.938;2024-03-17T05:39:35;0.70;99.90
20459;DHT22;10388;52.314;7.938;2024-03-17T05:42:06;0.80;99.90
20459;DHT22;10388;52.314;7.938;2024-03-17T05:44:37;0.80;99.90
20459;DHT22;10388;52.314;7.938;2024-03-17T05:47:20;0.80;99.90
20459;DHT22;10388;52.314;7.938;2024-03-17T05:49:50;0.90;99.90
20459;DHT22;10388;52.314;7.938;2024-03-17T05:52:21;1.00;99.90
20459;DHT22;10388;52.314;7.938;2024-03-17T05:54:52;1.10;99.90
20459;DHT22;10388;52.314;7.938;2024-03-17T05:57:22;1.20;99.90
20459;DHT22;10388;52.314;7.938;2024-03-17T05:59:54;1.30;99.90
20459;DHT22;10388;52.314;7.938;2024-03-17T06:02:25;1.30;99.90
20459;DHT22;10388;52.314;7.938;2024-03-17T06:04:56;1.30;99.90
20459;DHT22;10388;52.314;7.938;2024-03-17T06:07:28;1.30;99.90
20459;DHT22;10388;52.314;7.938;2024-03-17T06:09:58;1.30;99.90
20459;DHT22;10388;52.314;7.938;2024-03-17T06:12:31;1.40;99.90
20459;DHT22;10388;52.314;7.938;2024-03-17T06:15:02;1.40;99.90
20459;DHT22;10388;52.314;7.938;2024-03-17T06:17:33;1.50;99.90
20459;DHT22;10388;52.314;7.938;2024-03-17T06:20:04;1.60;99.90
20459;DHT22;10388;52.314;7.938;2024-03-17T06:22:36;1.60;99.90
20459;DHT22;10388;52.314;7.938;2024-03-17T06:25:06;1.70;99.90
20459;DHT22;10388;52.314;7.938;2024-03-17T06:27:37;1.70;99.90
20459;DHT22;10388;52.314;7.938;2024-03-17T06:30:14;1.80;99.90
20459;DHT22;10388;52.314;7.938;2024-03-17T06:32:45;1.90;99.90
20459;DHT22;10388;52.314;7.938;2024-03-17T06:35:16;2.00;99.90
20459;DHT22;10388;52.314;7.938;2024-03-17T06:37:48;2.00;99.90
20459;DHT22;10388;52.314;7.938;2024-03-17T06:40:19;2.10;99.90
20459;DHT22;10388;52.314;7.938;2024-03-17T06:42:50;2.10;99.90
20459;DHT22;10388;52.314;7.938;2024-03-17T06:45:20;2.20;99.90
20459;DHT22;10388;52.314;7.938;2024-03-17T06:47:51;2.30;99.90
20459;DHT22;10388;52.314;7.938;2024-03-17T06:50:22;2.40;99.90
20459;DHT22;10388;52.314;7.938;2024-03-17T06:52:52;2.40;99.90
20459;DHT22;10388;52.314;7.938;2024-03-17T06:55:23;2.40;99.90
20459;DHT22;10388;52.314;7.938;2024-03-17T06:57:55;2.50;99.90
20459;DHT22;10388;52.314;7.938;2024-03-17T07:00:25;2.60;99.90
20459;DHT22;10388;52.314;7.938;2024-03-17T07:02:56;2.60;99.90
20459;DHT22;10388;52.314;7.938;2024-03-17T07:05:27;2.70;99.90
20459;DHT22;10388;52.314;7.938;2024-03-17T07:08:00;2.70;99.90
20459;DHT22;10388;52.314;7.938;2024-03-17T07:10:31;2.70;99.90
20459;DHT22;10388;52.314;7.938;2024-03-17T07:13:01;2.80;99.90
20459;DHT22;10388;52.314;7.938;2024-03-17T07:15:32;2.80;99.90
20459;DHT22;10388;52.314;7.938;2024-03-17T07:18:03;2.90;99.90
20459;DHT22;10388;52.314;7.938;2024-03-17T07:20:33;2.90;99.90
20459;DHT22;10388;52.314;7.938;2024-03-17T07:23:04;3.10;99.90
20459;DHT22;10388;52.314;7.938;2024-03-17T07:25:35;3.20;99.90
20459;DHT22;10388;52.314;7.938;2024-03-17T07:28:05;3.20;99.90
20459;DHT22;10388;52.314;7.938;2024-03-17T07:30:36;3.50;99.90
20459;DHT22;10388;52.314;7.938;2024-03-17T07:33:07;3.60;99.90
20459;DHT22;10388;52.314;7.938;2024-03-17T07:35:55;3.70;99.90
20459;DHT22;10388;52.314;7.938;2024-03-17T07:38:28;3.80;99.90
20459;DHT22;10388;52.314;7.938;2024-03-17T07:41:00;3.90;99.90
20459;DHT22;10388;52.314;7.938;2024-03-17T07:43:36;4.00;99.90
20459;DHT22;10388;52.314;7.938;2024-03-17T07:46:11;4.20;99.90
20459;DHT22;10388;52.314;7.938;2024-03-17T07:48:44;4.30;99.90
20459;DHT22;10388;52.314;7.938;2024-03-17T07:51:15;4.50;99.90
20459;DHT22;10388;52.314;7.938;2024-03-17T07:53:49;4.60;99.90
20459;DHT22;10388;52.314;7.938;2024-03-17T07:56:20;4.80;99.90
20459;DHT22;10388;52.314;7.938;2024-03-17T07:58:51;4.90;99.90
20459;DHT22;10388;52.314;7.938;2024-03-17T08:01:21;5.00;99.90
20459;DHT22;10388;52.314;7.938;2024-03-17T08:03:52;5.10;99.90
20459;DHT22;10388;52.314;7.938;2024-03-17T08:06:26;5.30;99.90
20459;DHT22;10388;52.314;7.938;2024-03-17T08:08:56;5.50;99.90
20459;DHT22;10388;52.314;7.938;2024-03-17T08:11:27;5.60;99.90
20459;DHT22;10388;52.314;7.938;2024-03-17T08:13:58;5.70;99.90
20459;DHT22;10388;52.314;7.938;2024-03-17T08:16:29;5.80;99.90
20459;DHT22;10388;52.314;7.938;2024-03-17T08:19:00;6.00;99.90
20459;DHT22;10388;52.314;7.938;2024-03-17T08:21:30;6.00;99.90
20459;DHT22;10388;52.314;7.938;2024-03-17T08:24:01;6.10;99.90
20459;DHT22;10388;52.314;7.938;2024-03-17T08:26:32;6.00;99.90
20459;DHT22;10388;52.314;7.938;2024-03-17T08:29:02;6.00;99.90
20459;DHT22;10388;52.314;7.938;2024-03-17T08:31:33;6.10;99.90
20459;DHT22;10388;52.314;7.938;2024-03-17T08:34:03;6.20;99.90
20459;DHT22;10388;52.314;7.938;2024-03-17T08:36:34;6.40;99.90
20459;DHT22;10388;52.314;7.938;2024-03-17T08:39:04;6.50;99.90
20459;DHT22;10388;52.314;7.938;2024-03-17T08:41:35;6.60;99.90
20459;DHT22;10388;52.314;7.938;2024-03-17T08:44:05;6.70;99.90
20459;DHT22;10388;52.314;7.938;2024-03-17T08:46:36;6.80;99.90
20459;DHT22;10388;52.314;7.938;2024-03-17T08:49:07;7.00;99.90
20459;DHT22;10388;52.314;7.938;2024-03-17T08:51:37;7.10;99.90
20459;DHT22;10388;52.314;7.938;2024-03-17T08:54:08;7.20;99.90
20459;DHT22;10388;52.314;7.938;2024-03-17T08:56:39;7.30;99.90
20459;DHT22;10388;52.314;7.938;2024-03-17T08:59:09;7.30;99.90
20459;DHT22;10388;52.314;7.938;2024-03-17T09:01:42;7.40;99.90
20459;DHT22;10388;52.314;7.938;2024-03-17T09:04:13;7.50;99.90
20459;DHT22;10388;52.314;7.938;2024-03-17T09:06:43;7.70;99.90
20459;DHT22;10388;52.314;7.938;2024-03-17T09:09:14;7.90;99.90
20459;DHT22;10388;52.314;7.938;2024-03-17T09:11:44;8.00;99.90
20459;DHT22;10388;52.314;7.938;2024-03-17T09:14:15;8.00;99.90
20459;DHT22;10388;52.314;7.938;2024-03-17T09:16:46;8.10;99.90
20459;DHT22;10388;52.314;7.938;2024-03-17T09:19:17;8.10;99.90
20459;DHT22;10388;52.314;7.938;2024-03-17T09:21:47;8.10;99.90
20459;DHT22;10388;52.314;7.938;2024-03-17T09:24:18;8.10;99.90
20459;DHT22;10388;52.314;7.938;2024-03-17T09:26:48;8.20;99.90
20459;DHT22;10388;52.314;7.938;2024-03-17T09:29:19;8.30;99.90
20459;DHT22;10388;52.314;7.938;2024-03-17T09:31:49;8.50;99.90
20459;DHT22;10388;52.314;7.938;2024-03-17T09:34:21;8.70;99.90
20459;DHT22;10388;52.314;7.938;2024-03-17T09:36:52;8.90;99.90
20459;DHT22;10388;52.314;7.938;2024-03-17T09:39:23;9.00;99.90
20459;DHT22;10388;52.314;7.938;2024-03-17T09:41:55;9.20;99.90
20459;DHT22;10388;52.314;7.938;2024-03-17T09:44:25;9.40;99.90
20459;DHT22;10388;52.314;7.938;2024-03-17T09:46:58;9.50;99.90
20459;DHT22;10388;52.314;7.938;2024-03-17T09:49:30;9.60;99.90
20459;DHT22;10388;52.314;7.938;2024-03-17T09:52:01;9.70;99.90
20459;DHT22;10388;52.314;7.938;2024-03-17T09:54:32;9.90;99.90
20459;DHT22;10388;52.314;7.938;2024-03-17T09:57:09;10.00;99.90
20459;DHT22;10388;52.314;7.938;2024-03-17T09:59:50;10.10;99.90
20459;DHT22;10388;52.314;7.938;2024-03-17T10:02:22;10.10;99.90
20459;DHT22;10388;52.314;7.938;2024-03-17T10:04:53;10.20;99.90
20459;DHT22;10388;52.314;7.938;2024-03-17T10:07:38;10.20;99.90
20459;DHT22;10388;52.314;7.938;2024-03-17T10:10:12;10.30;99.90
20459;DHT22;10388;52.314;7.938;2024-03-17T10:12:43;10.40;99.90
20459;DHT22;10388;52.314;7.938;2024-03-17T10:15:14;10.60;99.90
20459;DHT22;10388;52.314;7.938;2024-03-17T10:17:45;10.70;99.90
20459;DHT22;10388;52.314;7.938;2024-03-17T10:20:20;10.60;99.90
20459;DHT22;10388;52.314;7.938;2024-03-17T10:23:01;10.60;99.90
20459;DHT22;10388;52.314;7.938;2024-03-17T10:25:34;10.60;99.90
20459;DHT22;10388;52.314;7.938;2024-03-17T10:28:16;10.50;99.90
20459;DHT22;10388;52.314;7.938;2024-03-17T10:31:00;10.70;99.90
20459;DHT22;10388;52.314;7.938;2024-03-17T10:33:31;10.70;99.90
20459;DHT22;10388;52.314;7.938;2024-03-17T10:36:02;10.90;99.90
20459;DHT22;10388;52.314;7.938;2024-03-17T10:38:32;10.90;99.90
20459;DHT22;10388;52.314;7.938;2024-03-17T10:41:05;10.90;99.90
20459;DHT22;10388;52.314;7.938;2024-03-17T10:43:36;10.90;99.90
20459;DHT22;10388;52.314;7.938;2024-03-17T10:46:10;10.80;99.90
20459;DHT22;10388;52.314;7.938;2024-03-17T10:48:43;10.80;99.90
20459;DHT22;10388;52.314;7.938;2024-03-17T10:51:17;10.70;99.90
20459;DHT22;10388;52.314;7.938;2024-03-17T10:53:48;10.90;99.90
20459;DHT22;10388;52.314;7.938;2024-03-17T10:56:20;10.90;99.90
20459;DHT22;10388;52.314;7.938;2024-03-17T10:58:53;11.00;99.90
20459;DHT22;10388;52.314;7.938;2024-03-17T11:01:28;11.10;99.90
20459;DHT22;10388;52.314;7.938;2024-03-17T11:03:59;11.00;99.90
20459;DHT22;10388;52.314;7.938;2024-03-17T11:06:30;11.10;99.90
20459;DHT22;10388;52.314;7.938;2024-03-17T11:09:01;11.30;99.90
20459;DHT22;10388;52.314;7.938;2024-03-17T11:11:37;11.40;99.90
20459;DHT22;10388;52.314;7.938;2024-03-17T11:14:19;11.40;99.90
20459;DHT22;10388;52.314;7.938;2024-03-17T11:16:50;11.40;99.90
20459;DHT22;10388;52.314;7.938;2024-03-17T11:19:20;11.30;99.90
20459;DHT22;10388;52.314;7.938;2024-03-17T11:21:51;11.50;99.90
20459;DHT22;10388;52.314;7.938;2024-03-17T11:24:22;11.70;99.90
20459;DHT22;10388;52.314;7.938;2024-03-17T11:26:53;11.80;99.90
20459;DHT22;10388;52.314;7.938;2024-03-17T11:29:30;11.70;99.90
20459;DHT22;10388;52.314;7.938;2024-03-17T11:32:25;11.70;99.90
20459;DHT22;10388;52.314;7.938;2024-03-17T11:35:13;11.50;99.90
20459;DHT22;10388;52.314;7.938;2024-03-17T11:37:44;11.50;99.90
20459;DHT22;10388;52.314;7.938;2024-03-17T11:40:25;11.80;99.90
20459;DHT22;10388;52.314;7.938;2024-03-17T11:43:04;11.70;99.90
20459;DHT22;10388;52.314;7.938;2024-03-17T11:45:36;11.80;99.90
20459;DHT22;10388;52.314;7.938;2024-03-17T11:48:12;11.90;99.90
20459;DHT22;10388;52.314;7.938;2024-03-17T11:50:44;11.70;99.90
20459;DHT22;10388;52.314;7.938;2024-03-17T11:53:15;11.80;99.90
20459;DHT22;10388;52.314;7.938;2024-03-17T11:55:49;11.70;99.90
20459;DHT22;10388;52.314;7.938;2024-03-17T11:58:20;11.90;99.90
20459;DHT22;10388;52.314;7.938;2024-03-17T12:00:52;11.90;99.90
20459;DHT22;10388;52.314;7.938;2024-03-17T12:03:23;12.20;99.90
20459;DHT22;10388;52.314;7.938;2024-03-17T12:05:53;12.40;99.90
20459;DHT22;10388;52.314;7.938;2024-03-17T12:08:24;12.70;99.90
20459;DHT22;10388;52.314;7.938;2024-03-17T12:10:55;12.80;99.90
20459;DHT22;10388;52.314;7.938;2024-03-17T12:13:33;12.80;99.90
20459;DHT22;10388;52.314;7.938;2024-03-17T12:16:13;12.80;99.90
20459;DHT22;10388;52.314;7.938;2024-03-17T12:18:43;12.80;99.90
20459;DHT22;10388;52.314;7.938;2024-03-17T12:21:15;12.60;99.90
20459;DHT22;10388;52.314;7.938;2024-03-17T12:23:46;12.60;99.90
20459;DHT22;10388;52.314;7.938;2024-03-17T12:26:17;12.70;99.90
20459;DHT22;10388;52.314;7.938;2024-03-17T12:28:48;12.80;99.90
20459;DHT22;10388;52.314;7.938;2024-03-17T12:31:20;12.90;99.90
20459;DHT22;10388;52.314;7.938;2024-03-17T12:33:51;12.70;99.90
20459;DHT22;10388;52.314;7.938;2024-03-17T12:36:21;12.60;99.90
20459;DHT22;10388;52.314;7.938;2024-03-17T12:38:52;12.70;99.90
20459;DHT22;10388;52.314;7.938;2024-03-17T12:41:22;12.60;99.90
20459;DHT22;10388;52.314;7.938;2024-03-17T12:43:53;12.80;99.90
20459;DHT22;10388;52.314;7.938;2024-03-17T12:46:24;12.80;99.90
20459;DHT22;10388;52.314;7.938;2024-03-17T12:48:59;13.00;99.90
20459;DHT22;10388;52.314;7.938;2024-03-17T12:51:33;13.00;99.90
20459;DHT22;10388;52.314;7.938;2024-03-17T12:54:14;13.00;99.90
20459;DHT22;10388;52.314;7.938;2024-03-17T12:56:45;13.10;99.90
20459;DHT22;10388;52.314;7.938;2024-03-17T12:59:41;13.40;99.90
20459;DHT22;10388;52.314;7.938;2024-03-17T13:02:31;13.40;99.90
20459;DHT22;10388;52.314;7.938;2024-03-17T13:05:18;13.40;99.90
20459;DHT22;10388;52.314;7.938;2024-03-17T13:07:49;13.50;99.90
20459;DHT22;10388;52.314;7.938;2024-03-17T13:10:20;13.60;99.90
20459;DHT22;10388;52.314;7.938;2024-03-17T13:13:08;13.30;99.90
20459;DHT22;10388;52.314;7.938;2024-03-17T13:15:39;13.10;99.90
20459;DHT22;10388;52.314;7.938;2024-03-17T13:18:16;12.90;99.90
20459;DHT22;10388;52.314;7.938;2024-03-17T13:20:47;13.00;99.90
20459;DHT22;10388;52.314;7.938;2024-03-17T13:23:20;13.10;99.90
20459;DHT22;10388;52.314;7.938;2024-03-17T13:25:54;13.10;99.90
20459;DHT22;10388;52.314;7.938;2024-03-17T13:28:25;13.20;99.90
20459;DHT22;10388;52.314;7.938;2024-03-17T13:30:56;13.10;99.90
20459;DHT22;10388;52.314;7.938;2024-03-17T13:33:26;13.10;99.90
20459;DHT22;10388;52.314;7.938;2024-03-17T13:35:57;12.90;99.90
20459;DHT22;10388;52.314;7.938;2024-03-17T13:38:27;12.90;99.90
20459;DHT22;10388;52.314;7.938;2024-03-17T13:40:58;12.90;99.90
20459;DHT22;10388;52.314;7.938;2024-03-17T13:43:28;13.10;99.90
20459;DHT22;10388;52.314;7.938;2024-03-17T13:46:00;13.10;99.90
20459;DHT22;10388;52.314;7.938;2024-03-17T13:48:30;13.00;99.90
20459;DHT22;10388;52.314;7.938;2024-03-17T13:51:02;12.70;99.90
20459;DHT22;10388;52.314;7.938;2024-03-17T13:53:32;12.60;99.90
20459;DHT22;10388;52.314;7.938;2024-03-17T13:56:03;12.60;99.90
20459;DHT22;10388;52.314;7.938;2024-03-17T13:58:35;12.50;99.90
20459;DHT22;10388;52.314;7.938;2024-03-17T14:01:07;12.30;99.90
20459;DHT22;10388;52.314;7.938;2024-03-17T14:03:38;12.40;99.90
20459;DHT22;10388;52.314;7.938;2024-03-17T14:06:09;12.50;99.90
20459;DHT22;10388;52.314;7.938;2024-03-17T14:08:40;12.50;99.90
20459;DHT22;10388;52.314;7.938;2024-03-17T14:11:10;12.50;99.90
20459;DHT22;10388;52.314;7.938;2024-03-17T14:13:41;12.50;99.90
20459;DHT22;10388;52.314;7.938;2024-03-17T14:16:11;12.50;99.90
20459;DHT22;10388;52.314;7.938;2024-03-17T14:18:42;12.40;99.90
20459;DHT22;10388;52.314;7.938;2024-03-17T14:21:13;12.20;99.90
20459;DHT22;10388;52.314;7.938;2024-03-17T14:23:44;12.30;99.90
20459;DHT22;10388;52.314;7.938;2024-03-17T14:26:15;12.10;99.90
20459;DHT22;10388;52.314;7.938;2024-03-17T14:28:46;12.20;99.90
20459;DHT22;10388;52.314;7.938;2024-03-17T14:31:17;12.10;99.90
20459;DHT22;10388;52.314;7.938;2024-03-17T14:33:47;12.10;99.90
20459;DHT22;10388;52.314;7.938;2024-03-17T14:36:18;12.20;99.90
20459;DHT22;10388;52.314;7.938;2024-03-17T14:38:50;12.20;99.90
20459;DHT22;10388;52.314;7.938;2024-03-17T14:41:20;12.10;99.90
20459;DHT22;10388;52.314;7.938;2024-03-17T14:43:51;12.20;99.90
20459;DHT22;10388;52.314;7.938;2024-03-17T14:46:21;12.30;99.90
20459;DHT22;10388;52.314;7.938;2024-03-17T14:48:52;12.20;99.90
20459;DHT22;10388;52.314;7.938;2024-03-17T14:51:22;12.10;99.90
20459;DHT22;10388;52.314;7.938;2024-03-17T14:53:53;12.00;99.90
20459;DHT22;10388;52.314;7.938;2024-03-17T14:56:24;12.00;99.90
20459;DHT22;10388;52.314;7.938;2024-03-17T14:58:55;12.10;99.90
20459;DHT22;10388;52.314;7.938;2024-03-17T15:01:26;12.10;99.90
20459;DHT22;10388;52.314;7.938;2024-03-17T15:04:00;12.20;99.90
20459;DHT22;10388;52.314;7.938;2024-03-17T15:06:30;12.20;99.90
20459;DHT22;10388;52.314;7.938;2024-03-17T15:09:02;12.20;99.90
20459;DHT22;10388;52.314;7.938;2024-03-17T15:11:33;12.10;99.90
20459;DHT22;10388;52.314;7.938;2024-03-17T15:14:03;12.10;99.90
20459;DHT22;10388;52.314;7.938;2024-03-17T15:16:39;12.00;99.90
20459;DHT22;10388;52.314;7.938;2024-03-17T15:19:09;12.00;99.90
20459;DHT22;10388;52.314;7.938;2024-03-17T15:21:40;12.00;99.90
20459;DHT22;10388;52.314;7.938;2024-03-17T15:24:10;12.00;99.90
20459;DHT22;10388;52.314;7.938;2024-03-17T15:26:41;12.00;99.90
20459;DHT22;10388;52.314;7.938;2024-03-17T15:29:12;12.00;99.90
20459;DHT22;10388;52.314;7.938;2024-03-17T15:31:42;12.00;99.90
20459;DHT22;10388;52.314;7.938;2024-03-17T15:34:13;11.90;99.90
20459;DHT22;10388;52.314;7.938;2024-03-17T15:36:43;11.90;99.90
20459;DHT22;10388;52.314;7.938;2024-03-17T15:39:14;11.80;99.90
20459;DHT22;10388;52.314;7.938;2024-03-17T15:41:45;11.90;99.90
20459;DHT22;10388;52.314;7.938;2024-03-17T15:44:15;11.90;99.90
20459;DHT22;10388;52.314;7.938;2024-03-17T15:46:51;11.80;99.90
20459;DHT22;10388;52.314;7.938;2024-03-17T15:49:22;11.80;99.90
20459;DHT22;10388;52.314;7.938;2024-03-17T15:51:52;11.80;99.90
20459;DHT22;10388;52.314;7.938;2024-03-17T15:54:23;11.70;99.90
20459;DHT22;10388;52.314;7.938;2024-03-17T15:56:54;11.70;99.90
20459;DHT22;10388;52.314;7.938;2024-03-17T15:59:24;11.60;99.90
20459;DHT22;10388;52.314;7.938;2024-03-17T16:01:55;11.60;99.90
20459;DHT22;10388;52.314;7.938;2024-03-17T16:04:26;11.60;99.90
20459;DHT22;10388;52.314;7.938;2024-03-17T16:06:57;11.60;99.90
20459;DHT22;10388;52.314;7.938;2024-03-17T16:09:27;11.50;99.90
20459;DHT22;10388;52.314;7.938;2024-03-17T16:11:59;11.50;99.90
20459;DHT22;10388;52.314;7.938;2024-03-17T16:14:30;11.50;99.90
20459;DHT22;10388;52.314;7.938;2024-03-17T16:17:00;11.50;99.90
20459;DHT22;10388;52.314;7.938;2024-03-17T16:19:32;11.40;99.90
20459;DHT22;10388;52.314;7.938;2024-03-17T16:22:04;11.40;99.90
20459;DHT22;10388;52.314;7.938;2024-03-17T16:24:36;11.40;99.90
20459;DHT22;10388;52.314;7.938;2024-03-17T16:27:07;11.30;99.90
20459;DHT22;10388;52.314;7.938;2024-03-17T16:29:40;11.30;99.90
20459;DHT22;10388;52.314;7.938;2024-03-17T16:32:12;11.30;99.90
20459;DHT22;10388;52.314;7.938;2024-03-17T16:34:43;11.30;99.90
20459;DHT22;10388;52.314;7.938;2024-03-17T16:37:13;11.20;99.90
20459;DHT22;10388;52.314;7.938;2024-03-17T16:39:47;11.20;99.90
20459;DHT22;10388;52.314;7.938;2024-03-17T16:42:18;11.10;99.90
20459;DHT22;10388;52.314;7.938;2024-03-17T16:44:58;11.10;99.90
20459;DHT22;10388;52.314;7.938;2024-03-17T16:47:31;11.10;99.90
20459;DHT22;10388;52.314;7.938;2024-03-17T16:50:04;11.00;99.90
20459;DHT22;10388;52.314;7.938;2024-03-17T16:52:36;11.00;99.90
20459;DHT22;10388;52.314;7.938;2024-03-17T16:55:07;11.00;99.90
20459;DHT22;10388;52.314;7.938;2024-03-17T16:57:39;11.00;99.90
20459;DHT22;10388;52.314;7.938;2024-03-17T17:00:11;10.90;99.90
20459;DHT22;10388;52.314;7.938;2024-03-17T17:02:47;10.90;99.90
20459;DHT22;10388;52.314;7.938;2024-03-17T17:05:18;10.80;99.90